sensor_id;sensor_type;location;lat;lon;timestamp;P1;durP1;ratioP1;P2;durP2;ratioP2
22904;SDS011;11619;50.140;8.518;2022-09-13T00:01:11;5.75;;;5.20;;
22904;SDS011;11619;50.140;8.518;2022-09-13T00:03:37;6.90;;;6.32;;
22904;SDS011;11619;50.140;8.518;2022-09-13T00:06:11;5.97;;;4.90;;
22904;SDS011;11619;50.140;8.518;2022-09-13T00:08:39;6.32;;;5.72;;
22904;SDS011;11619;50.140;8.518;2022-09-13T00:11:06;5.57;;;5.15;;
22904;SDS011;11619;50.140;8.518;2022-09-13T00:13:33;5.45;;;4.97;;
22904;SDS011;11619;50.140;8.518;2022-09-13T00:15:59;6.18;;;5.57;;
22904;SDS011;11619;50.140;8.518;2022-09-13T00:18:28;5.85;;;5.30;;
22904;SDS011;11619;50.140;8.518;2022-09-13T00:21:05;5.93;;;5.40;;
22904;SDS011;11619;50.140;8.518;2022-09-13T00:23:32;6.53;;;5.18;;
22904;SDS011;11619;50.140;8.518;2022-09-13T00:26:03;5.30;;;4.90;;
22904;SDS011;11619;50.140;8.518;2022-09-13T00:28:33;6.60;;;5.18;;
22904;SDS011;11619;50.140;8.518;2022-09-13T00:31:03;5.70;;;5.13;;
22904;SDS011;11619;50.140;8.518;2022-09-13T00:33:31;5.47;;;4.97;;
22904;SDS011;11619;50.140;8.518;2022-09-13T00:35:58;6.18;;;5.57;;
22904;SDS011;11619;50.140;8.518;2022-09-13T00:38:24;5.38;;;4.97;;
22904;SDS011;11619;50.140;8.518;2022-09-13T00:40:50;5.55;;;5.05;;
22904;SDS011;11619;50.140;8.518;2022-09-13T00:43:18;6.45;;;5.88;;
22904;SDS011;11619;50.140;8.518;2022-09-13T00:45:46;6.32;;;5.40;;
22904;SDS011;11619;50.140;8.518;2022-09-13T00:48:20;5.65;;;5.00;;
22904;SDS011;11619;50.140;8.518;2022-09-13T00:50:49;6.00;;;5.40;;
22904;SDS011;11619;50.140;8.518;2022-09-13T00:53:23;5.15;;;4.72;;
22904;SDS011;11619;50.140;8.518;2022-09-13T00:55:52;5.87;;;5.30;;
22904;SDS011;11619;50.140;8.518;2022-09-13T00:58:32;5.15;;;4.75;;
22904;SDS011;11619;50.140;8.518;2022-09-13T01:01:00;6.18;;;5.57;;
22904;SDS011;11619;50.140;8.518;2022-09-13T01:03:27;6.15;;;5.65;;
22904;SDS011;11619;50.140;8.518;2022-09-13T01:06:00;5.40;;;4.97;;
22904;SDS011;11619;50.140;8.518;2022-09-13T01:08:29;5.90;;;5.30;;
22904;SDS011;11619;50.140;8.518;2022-09-13T01:10:57;5.80;;;5.30;;
22904;SDS011;11619;50.140;8.518;2022-09-13T01:13:25;6.00;;;5.13;;
22904;SDS011;11619;50.140;8.518;2022-09-13T01:15:54;5.75;;;5.25;;
22904;SDS011;11619;50.140;8.518;2022-09-13T01:18:20;5.28;;;4.88;;
22904;SDS011;11619;50.140;8.518;2022-09-13T01:23:36;5.50;;;5.00;;
22904;SDS011;11619;50.140;8.518;2022-09-13T01:31:35;7.50;;;5.35;;
22904;SDS011;11619;50.140;8.518;2022-09-13T01:34:14;5.55;;;5.05;;
22904;SDS011;11619;50.140;8.518;2022-09-13T01:39:57;5.18;;;4.78;;
22904;SDS011;11619;50.140;8.518;2022-09-13T01:47:48;6.20;;;5.53;;
22904;SDS011;11619;50.140;8.518;2022-09-13T01:50:35;6.65;;;5.82;;
22904;SDS011;11619;50.140;8.518;2022-09-13T01:53:17;5.90;;;5.40;;
22904;SDS011;11619;50.140;8.518;2022-09-13T01:55:58;6.35;;;5.47;;
22904;SDS011;11619;50.140;8.518;2022-09-13T01:58:30;5.95;;;5.45;;
22904;SDS011;11619;50.140;8.518;2022-09-13T02:01:13;6.97;;;5.45;;
22904;SDS011;11619;50.140;8.518;2022-09-13T02:06:22;9.63;;;6.03;;
22904;SDS011;11619;50.140;8.518;2022-09-13T02:08:53;6.20;;;5.70;;
22904;SDS011;11619;50.140;8.518;2022-09-13T02:11:21;6.95;;;6.15;;
22904;SDS011;11619;50.140;8.518;2022-09-13T02:13:59;6.75;;;5.63;;
22904;SDS011;11619;50.140;8.518;2022-09-13T02:16:33;6.63;;;5.95;;
22904;SDS011;11619;50.140;8.518;2022-09-13T02:19:02;6.15;;;5.55;;
22904;SDS011;11619;50.140;8.518;2022-09-13T02:21:33;6.80;;;5.82;;
22904;SDS011;11619;50.140;8.518;2022-09-13T02:24:08;6.43;;;5.82;;
22904;SDS011;11619;50.140;8.518;2022-09-13T02:26:43;8.68;;;6.15;;
22904;SDS011;11619;50.140;8.518;2022-09-13T02:29:13;6.43;;;5.82;;
22904;SDS011;11619;50.140;8.518;2022-09-13T02:31:49;6.78;;;6.18;;
22904;SDS011;11619;50.140;8.518;2022-09-13T02:34:30;5.75;;;5.18;;
22904;SDS011;11619;50.140;8.518;2022-09-13T02:36:59;6.32;;;5.13;;
22904;SDS011;11619;50.140;8.518;2022-09-13T02:39:26;5.80;;;5.30;;
22904;SDS011;11619;50.140;8.518;2022-09-13T02:42:07;6.50;;;5.40;;
22904;SDS011;11619;50.140;8.518;2022-09-13T02:44:41;5.85;;;5.30;;
22904;SDS011;11619;50.140;8.518;2022-09-13T02:52:47;6.00;;;5.50;;
22904;SDS011;11619;50.140;8.518;2022-09-13T03:00:52;5.40;;;5.00;;
22904;SDS011;11619;50.140;8.518;2022-09-13T03:03:19;5.60;;;4.95;;
22904;SDS011;11619;50.140;8.518;2022-09-13T03:05:46;6.13;;;5.55;;
22904;SDS011;11619;50.140;8.518;2022-09-13T03:08:12;5.70;;;5.20;;
22904;SDS011;11619;50.140;8.518;2022-09-13T03:14:09;6.32;;;5.72;;
22904;SDS011;11619;50.140;8.518;2022-09-13T03:16:35;7.55;;;5.80;;
22904;SDS011;11619;50.140;8.518;2022-09-13T03:19:22;7.10;;;6.40;;
22904;SDS011;11619;50.140;8.518;2022-09-13T03:25:26;5.53;;;5.03;;
22904;SDS011;11619;50.140;8.518;2022-09-13T03:30:27;5.72;;;5.32;;
22904;SDS011;11619;50.140;8.518;2022-09-13T03:33:05;5.68;;;5.28;;
22904;SDS011;11619;50.140;8.518;2022-09-13T03:38:32;5.82;;;5.28;;
22904;SDS011;11619;50.140;8.518;2022-09-13T03:41:07;6.15;;;5.55;;
22904;SDS011;11619;50.140;8.518;2022-09-13T03:43:43;6.80;;;5.80;;
22904;SDS011;11619;50.140;8.518;2022-09-13T03:46:14;6.00;;;5.32;;
22904;SDS011;11619;50.140;8.518;2022-09-13T03:48:43;5.90;;;5.40;;
22904;SDS011;11619;50.140;8.518;2022-09-13T03:51:10;6.47;;;5.85;;
22904;SDS011;11619;50.140;8.518;2022-09-13T03:53:39;6.40;;;5.80;;
22904;SDS011;11619;50.140;8.518;2022-09-13T03:56:12;6.10;;;5.50;;
22904;SDS011;11619;50.140;8.518;2022-09-13T03:58:40;5.85;;;5.18;;
22904;SDS011;11619;50.140;8.518;2022-09-13T04:01:07;6.95;;;6.35;;
22904;SDS011;11619;50.140;8.518;2022-09-13T04:03:35;7.38;;;6.60;;
22904;SDS011;11619;50.140;8.518;2022-09-13T04:06:02;6.70;;;6.05;;
22904;SDS011;11619;50.140;8.518;2022-09-13T04:08:29;7.18;;;6.53;;
22904;SDS011;11619;50.140;8.518;2022-09-13T04:10:57;7.47;;;6.25;;
22904;SDS011;11619;50.140;8.518;2022-09-13T04:13:24;6.00;;;5.50;;
22904;SDS011;11619;50.140;8.518;2022-09-13T04:15:50;6.88;;;6.18;;
22904;SDS011;11619;50.140;8.518;2022-09-13T04:18:16;6.10;;;5.55;;
22904;SDS011;11619;50.140;8.518;2022-09-13T04:20:43;6.80;;;6.18;;
22904;SDS011;11619;50.140;8.518;2022-09-13T04:23:09;6.38;;;5.88;;
22904;SDS011;11619;50.140;8.518;2022-09-13T04:25:38;6.13;;;5.63;;
22904;SDS011;11619;50.140;8.518;2022-09-13T04:28:05;6.05;;;5.55;;
22904;SDS011;11619;50.140;8.518;2022-09-13T04:30:32;6.47;;;5.97;;
22904;SDS011;11619;50.140;8.518;2022-09-13T04:32:58;6.35;;;5.85;;
22904;SDS011;11619;50.140;8.518;2022-09-13T04:35:25;6.45;;;5.82;;
22904;SDS011;11619;50.140;8.518;2022-09-13T04:37:53;6.75;;;5.97;;
22904;SDS011;11619;50.140;8.518;2022-09-13T04:40:21;6.18;;;5.65;;
22904;SDS011;11619;50.140;8.518;2022-09-13T04:42:48;6.72;;;6.13;;
22904;SDS011;11619;50.140;8.518;2022-09-13T04:45:15;6.03;;;5.53;;
22904;SDS011;11619;50.140;8.518;2022-09-13T04:47:41;5.43;;;4.97;;
22904;SDS011;11619;50.140;8.518;2022-09-13T04:50:07;7.13;;;6.35;;
22904;SDS011;11619;50.140;8.518;2022-09-13T04:52:35;6.18;;;5.57;;
22904;SDS011;11619;50.140;8.518;2022-09-13T04:55:01;7.75;;;6.60;;
22904;SDS011;11619;50.140;8.518;2022-09-13T04:57:28;6.28;;;5.78;;
22904;SDS011;11619;50.140;8.518;2022-09-13T04:59:54;7.43;;;6.68;;
22904;SDS011;11619;50.140;8.518;2022-09-13T05:02:20;6.18;;;5.57;;
22904;SDS011;11619;50.140;8.518;2022-09-13T05:04:47;6.95;;;6.35;;
22904;SDS011;11619;50.140;8.518;2022-09-13T05:07:13;7.75;;;6.60;;
22904;SDS011;11619;50.140;8.518;2022-09-13T05:09:40;6.55;;;5.95;;
22904;SDS011;11619;50.140;8.518;2022-09-13T05:12:06;6.13;;;5.63;;
22904;SDS011;11619;50.140;8.518;2022-09-13T05:14:33;6.40;;;5.90;;
22904;SDS011;11619;50.140;8.518;2022-09-13T05:17:00;5.93;;;5.38;;
22904;SDS011;11619;50.140;8.518;2022-09-13T05:19:26;6.38;;;5.78;;
22904;SDS011;11619;50.140;8.518;2022-09-13T05:21:52;6.50;;;5.90;;
22904;SDS011;11619;50.140;8.518;2022-09-13T05:24:19;6.78;;;6.03;;
22904;SDS011;11619;50.140;8.518;2022-09-13T05:26:45;6.57;;;6.07;;
22904;SDS011;11619;50.140;8.518;2022-09-13T05:29:11;6.38;;;5.78;;
22904;SDS011;11619;50.140;8.518;2022-09-13T05:31:38;5.97;;;5.47;;
22904;SDS011;11619;50.140;8.518;2022-09-13T05:34:07;6.43;;;5.82;;
22904;SDS011;11619;50.140;8.518;2022-09-13T05:36:35;8.75;;;6.07;;
22904;SDS011;11619;50.140;8.518;2022-09-13T05:39:02;8.05;;;6.30;;
22904;SDS011;11619;50.140;8.518;2022-09-13T05:41:49;7.55;;;6.53;;
22904;SDS011;11619;50.140;8.518;2022-09-13T05:44:16;7.03;;;6.32;;
22904;SDS011;11619;50.140;8.518;2022-09-13T05:46:45;6.38;;;5.85;;
22904;SDS011;11619;50.140;8.518;2022-09-13T05:49:12;5.93;;;5.43;;
22904;SDS011;11619;50.140;8.518;2022-09-13T05:51:39;6.30;;;5.80;;
22904;SDS011;11619;50.140;8.518;2022-09-13T05:54:05;6.13;;;5.63;;
22904;SDS011;11619;50.140;8.518;2022-09-13T05:56:31;6.10;;;5.60;;
22904;SDS011;11619;50.140;8.518;2022-09-13T05:58:58;6.25;;;5.75;;
22904;SDS011;11619;50.140;8.518;2022-09-13T06:01:25;7.10;;;6.13;;
22904;SDS011;11619;50.140;8.518;2022-09-13T06:03:54;6.57;;;5.97;;
22904;SDS011;11619;50.140;8.518;2022-09-13T06:06:22;6.82;;;6.22;;
22904;SDS011;11619;50.140;8.518;2022-09-13T06:08:52;6.45;;;5.85;;
22904;SDS011;11619;50.140;8.518;2022-09-13T06:11:19;7.13;;;6.53;;
22904;SDS011;11619;50.140;8.518;2022-09-13T06:13:46;6.20;;;5.60;;
22904;SDS011;11619;50.140;8.518;2022-09-13T06:16:12;5.38;;;4.97;;
22904;SDS011;11619;50.140;8.518;2022-09-13T06:18:39;6.60;;;6.00;;
22904;SDS011;11619;50.140;8.518;2022-09-13T06:21:07;5.88;;;5.38;;
22904;SDS011;11619;50.140;8.518;2022-09-13T06:23:36;7.00;;;6.28;;
22904;SDS011;11619;50.140;8.518;2022-09-13T06:28:34;8.05;;;7.35;;
22904;SDS011;11619;50.140;8.518;2022-09-13T06:31:11;6.30;;;5.72;;
22904;SDS011;11619;50.140;8.518;2022-09-13T06:33:39;7.10;;;6.47;;
22904;SDS011;11619;50.140;8.518;2022-09-13T06:36:16;6.68;;;6.07;;
22904;SDS011;11619;50.140;8.518;2022-09-13T06:38:44;10.02;;;7.55;;
22904;SDS011;11619;50.140;8.518;2022-09-13T06:41:12;9.45;;;8.18;;
22904;SDS011;11619;50.140;8.518;2022-09-13T06:43:55;7.93;;;7.22;;
22904;SDS011;11619;50.140;8.518;2022-09-13T06:46:23;8.23;;;7.43;;
22904;SDS011;11619;50.140;8.518;2022-09-13T06:48:51;8.20;;;7.40;;
22904;SDS011;11619;50.140;8.518;2022-09-13T06:51:19;10.25;;;7.38;;
22904;SDS011;11619;50.140;8.518;2022-09-13T06:53:47;7.57;;;6.85;;
22904;SDS011;11619;50.140;8.518;2022-09-13T06:56:23;8.95;;;8.15;;
22904;SDS011;11619;50.140;8.518;2022-09-13T06:58:54;8.30;;;7.50;;
22904;SDS011;11619;50.140;8.518;2022-09-13T07:01:23;8.65;;;7.95;;
22904;SDS011;11619;50.140;8.518;2022-09-13T07:04:07;9.35;;;7.63;;
22904;SDS011;11619;50.140;8.518;2022-09-13T07:06:36;9.38;;;8.48;;
22904;SDS011;11619;50.140;8.518;2022-09-13T07:09:04;7.78;;;7.05;;
22904;SDS011;11619;50.140;8.518;2022-09-13T07:11:33;8.95;;;8.13;;
22904;SDS011;11619;50.140;8.518;2022-09-13T07:14:01;8.98;;;8.05;;
22904;SDS011;11619;50.140;8.518;2022-09-13T07:16:31;8.93;;;8.13;;
22904;SDS011;11619;50.140;8.518;2022-09-13T07:18:59;12.90;;;8.68;;
22904;SDS011;11619;50.140;8.518;2022-09-13T07:21:27;9.93;;;8.73;;
22904;SDS011;11619;50.140;8.518;2022-09-13T07:23:54;12.02;;;8.13;;
22904;SDS011;11619;50.140;8.518;2022-09-13T07:26:21;9.00;;;7.35;;
22904;SDS011;11619;50.140;8.518;2022-09-13T07:28:48;9.20;;;8.30;;
22904;SDS011;11619;50.140;8.518;2022-09-13T07:31:18;9.27;;;8.43;;
22904;SDS011;11619;50.140;8.518;2022-09-13T07:33:46;9.00;;;7.82;;
22904;SDS011;11619;50.140;8.518;2022-09-13T07:36:14;8.25;;;7.53;;
22904;SDS011;11619;50.140;8.518;2022-09-13T07:38:40;7.60;;;6.90;;
22904;SDS011;11619;50.140;8.518;2022-09-13T07:41:12;7.57;;;6.88;;
22904;SDS011;11619;50.140;8.518;2022-09-13T07:43:42;7.65;;;6.85;;
22904;SDS011;11619;50.140;8.518;2022-09-13T07:46:10;12.77;;;7.90;;
22904;SDS011;11619;50.140;8.518;2022-09-13T07:48:39;9.27;;;8.02;;
22904;SDS011;11619;50.140;8.518;2022-09-13T07:51:10;11.45;;;8.85;;
22904;SDS011;11619;50.140;8.518;2022-09-13T07:53:38;13.40;;;9.02;;
22904;SDS011;11619;50.140;8.518;2022-09-13T07:56:12;10.57;;;8.63;;
22904;SDS011;11619;50.140;8.518;2022-09-13T08:01:11;9.23;;;8.18;;
22904;SDS011;11619;50.140;8.518;2022-09-13T08:03:39;10.60;;;8.13;;
22904;SDS011;11619;50.140;8.518;2022-09-13T08:06:06;9.40;;;8.60;;
22904;SDS011;11619;50.140;8.518;2022-09-13T08:08:33;11.30;;;9.57;;
22904;SDS011;11619;50.140;8.518;2022-09-13T08:11:01;10.18;;;9.23;;
22904;SDS011;11619;50.140;8.518;2022-09-13T08:13:28;17.13;;;9.75;;
22904;SDS011;11619;50.140;8.518;2022-09-13T08:16:01;12.65;;;9.27;;
22904;SDS011;11619;50.140;8.518;2022-09-13T08:18:31;8.98;;;8.18;;
22904;SDS011;11619;50.140;8.518;2022-09-13T08:20:58;9.30;;;8.40;;
22904;SDS011;11619;50.140;8.518;2022-09-13T08:23:25;10.15;;;8.73;;
22904;SDS011;11619;50.140;8.518;2022-09-13T08:25:52;10.10;;;9.07;;
22904;SDS011;11619;50.140;8.518;2022-09-13T08:28:19;8.60;;;7.45;;
22904;SDS011;11619;50.140;8.518;2022-09-13T08:30:52;11.55;;;8.75;;
22904;SDS011;11619;50.140;8.518;2022-09-13T08:33:18;10.45;;;8.75;;
22904;SDS011;11619;50.140;8.518;2022-09-13T08:35:48;10.82;;;8.40;;
22904;SDS011;11619;50.140;8.518;2022-09-13T08:38:18;9.82;;;8.32;;
22904;SDS011;11619;50.140;8.518;2022-09-13T08:40:48;9.98;;;8.20;;
22904;SDS011;11619;50.140;8.518;2022-09-13T08:43:20;9.38;;;8.35;;
22904;SDS011;11619;50.140;8.518;2022-09-13T08:45:50;9.88;;;8.15;;
22904;SDS011;11619;50.140;8.518;2022-09-13T08:48:32;12.52;;;7.80;;
22904;SDS011;11619;50.140;8.518;2022-09-13T08:51:04;8.48;;;7.00;;
22904;SDS011;11619;50.140;8.518;2022-09-13T08:53:36;9.43;;;6.82;;
22904;SDS011;11619;50.140;8.518;2022-09-13T08:56:15;7.10;;;6.40;;
22904;SDS011;11619;50.140;8.518;2022-09-13T08:58:51;6.25;;;5.75;;
22904;SDS011;11619;50.140;8.518;2022-09-13T09:01:43;9.52;;;5.68;;
22904;SDS011;11619;50.140;8.518;2022-09-13T09:06:54;7.80;;;7.03;;
22904;SDS011;11619;50.140;8.518;2022-09-13T09:09:31;8.10;;;7.32;;
22904;SDS011;11619;50.140;8.518;2022-09-13T09:12:14;9.93;;;8.05;;
22904;SDS011;11619;50.140;8.518;2022-09-13T09:14:52;9.15;;;7.70;;
22904;SDS011;11619;50.140;8.518;2022-09-13T09:17:24;10.23;;;7.63;;
22904;SDS011;11619;50.140;8.518;2022-09-13T09:19:55;10.70;;;7.70;;
22904;SDS011;11619;50.140;8.518;2022-09-13T09:22:31;12.60;;;7.97;;
22904;SDS011;11619;50.140;8.518;2022-09-13T09:24:59;11.50;;;9.15;;
22904;SDS011;11619;50.140;8.518;2022-09-13T09:27:28;13.80;;;9.75;;
22904;SDS011;11619;50.140;8.518;2022-09-13T09:29:55;10.77;;;9.13;;
22904;SDS011;11619;50.140;8.518;2022-09-13T09:38:06;12.40;;;9.52;;
22904;SDS011;11619;50.140;8.518;2022-09-13T09:40:44;12.50;;;10.23;;
22904;SDS011;11619;50.140;8.518;2022-09-13T09:43:12;11.38;;;9.90;;
22904;SDS011;11619;50.140;8.518;2022-09-13T09:45:42;11.93;;;10.55;;
22904;SDS011;11619;50.140;8.518;2022-09-13T09:48:11;11.55;;;9.60;;
22904;SDS011;11619;50.140;8.518;2022-09-13T09:50:45;11.30;;;9.75;;
22904;SDS011;11619;50.140;8.518;2022-09-13T09:53:13;14.23;;;10.40;;
22904;SDS011;11619;50.140;8.518;2022-09-13T09:55:47;12.40;;;10.98;;
22904;SDS011;11619;50.140;8.518;2022-09-13T09:58:17;13.60;;;10.25;;
22904;SDS011;11619;50.140;8.518;2022-09-13T10:00:50;12.38;;;10.13;;
22904;SDS011;11619;50.140;8.518;2022-09-13T10:03:19;14.68;;;10.55;;
22904;SDS011;11619;50.140;8.518;2022-09-13T10:05:49;11.35;;;10.15;;
22904;SDS011;11619;50.140;8.518;2022-09-13T10:08:25;11.32;;;10.15;;
22904;SDS011;11619;50.140;8.518;2022-09-13T10:10:55;11.50;;;10.30;;
22904;SDS011;11619;50.140;8.518;2022-09-13T10:13:22;12.93;;;10.02;;
22904;SDS011;11619;50.140;8.518;2022-09-13T10:15:55;13.55;;;10.88;;
22904;SDS011;11619;50.140;8.518;2022-09-13T10:18:24;16.95;;;11.23;;
22904;SDS011;11619;50.140;8.518;2022-09-13T10:21:22;11.40;;;10.20;;
22904;SDS011;11619;50.140;8.518;2022-09-13T10:23:50;13.38;;;11.02;;
22904;SDS011;11619;50.140;8.518;2022-09-13T10:26:18;12.48;;;10.48;;
22904;SDS011;11619;50.140;8.518;2022-09-13T10:28:50;15.80;;;10.70;;
22904;SDS011;11619;50.140;8.518;2022-09-13T10:31:26;11.60;;;10.02;;
22904;SDS011;11619;50.140;8.518;2022-09-13T10:33:56;11.90;;;10.68;;
22904;SDS011;11619;50.140;8.518;2022-09-13T10:36:26;13.63;;;11.07;;
22904;SDS011;11619;50.140;8.518;2022-09-13T10:39:16;11.02;;;9.75;;
22904;SDS011;11619;50.140;8.518;2022-09-13T10:41:49;11.57;;;10.32;;
22904;SDS011;11619;50.140;8.518;2022-09-13T10:44:39;15.10;;;10.68;;
22904;SDS011;11619;50.140;8.518;2022-09-13T10:47:12;11.30;;;9.52;;
22904;SDS011;11619;50.140;8.518;2022-09-13T10:49:47;10.35;;;8.43;;
22904;SDS011;11619;50.140;8.518;2022-09-13T10:52:28;9.30;;;8.40;;
22904;SDS011;11619;50.140;8.518;2022-09-13T10:55:15;9.43;;;8.48;;
22904;SDS011;11619;50.140;8.518;2022-09-13T10:57:48;12.38;;;9.18;;
22904;SDS011;11619;50.140;8.518;2022-09-13T11:00:17;7.28;;;6.60;;
22904;SDS011;11619;50.140;8.518;2022-09-13T11:02:53;7.88;;;6.55;;
22904;SDS011;11619;50.140;8.518;2022-09-13T11:08:16;7.82;;;7.05;;
22904;SDS011;11619;50.140;8.518;2022-09-13T11:10:57;8.27;;;7.47;;
22904;SDS011;11619;50.140;8.518;2022-09-13T11:13:33;8.60;;;7.65;;
22904;SDS011;11619;50.140;8.518;2022-09-13T11:16:17;6.70;;;6.10;;
22904;SDS011;11619;50.140;8.518;2022-09-13T11:30:32;7.80;;;6.25;;
22904;SDS011;11619;50.140;8.518;2022-09-13T11:32:59;12.93;;;6.57;;
22904;SDS011;11619;50.140;8.518;2022-09-13T11:38:25;6.18;;;4.40;;
22904;SDS011;11619;50.140;8.518;2022-09-13T11:46:13;4.50;;;4.10;;
22904;SDS011;11619;50.140;8.518;2022-09-13T11:54:26;5.80;;;4.05;;
22904;SDS011;11619;50.140;8.518;2022-09-13T11:57:05;6.18;;;4.32;;
22904;SDS011;11619;50.140;8.518;2022-09-13T11:59:39;4.95;;;3.72;;
22904;SDS011;11619;50.140;8.518;2022-09-13T12:02:20;4.28;;;3.33;;
22904;SDS011;11619;50.140;8.518;2022-09-13T12:04:53;7.40;;;3.60;;
22904;SDS011;11619;50.140;8.518;2022-09-13T12:07:54;4.35;;;3.33;;
22904;SDS011;11619;50.140;8.518;2022-09-13T12:10:24;4.95;;;4.43;;
22904;SDS011;11619;50.140;8.518;2022-09-13T12:12:55;5.20;;;4.70;;
22904;SDS011;11619;50.140;8.518;2022-09-13T12:15:36;6.85;;;4.50;;
22904;SDS011;11619;50.140;8.518;2022-09-13T12:21:07;11.45;;;4.90;;
22904;SDS011;11619;50.140;8.518;2022-09-13T12:23:38;6.13;;;5.55;;
22904;SDS011;11619;50.140;8.518;2022-09-13T12:26:14;5.53;;;5.03;;
22904;SDS011;11619;50.140;8.518;2022-09-13T12:28:47;4.82;;;4.30;;
22904;SDS011;11619;50.140;8.518;2022-09-13T12:31:22;5.70;;;4.82;;
22904;SDS011;11619;50.140;8.518;2022-09-13T12:33:50;5.05;;;4.50;;
22904;SDS011;11619;50.140;8.518;2022-09-13T12:36:28;5.20;;;4.47;;
22904;SDS011;11619;50.140;8.518;2022-09-13T12:47:28;7.63;;;6.45;;
22904;SDS011;11619;50.140;8.518;2022-09-13T12:50:02;10.70;;;6.10;;
22904;SDS011;11619;50.140;8.518;2022-09-13T13:01:27;8.18;;;7.30;;
22904;SDS011;11619;50.140;8.518;2022-09-13T13:04:03;8.10;;;7.30;;
22904;SDS011;11619;50.140;8.518;2022-09-13T13:06:34;7.20;;;6.50;;
22904;SDS011;11619;50.140;8.518;2022-09-13T13:09:05;7.90;;;6.55;;
22904;SDS011;11619;50.140;8.518;2022-09-13T13:11:51;6.63;;;5.95;;
22904;SDS011;11619;50.140;8.518;2022-09-13T13:14:29;8.35;;;6.97;;
22904;SDS011;11619;50.140;8.518;2022-09-13T13:25:56;9.20;;;5.85;;
22904;SDS011;11619;50.140;8.518;2022-09-13T13:34:00;5.03;;;4.53;;
22904;SDS011;11619;50.140;8.518;2022-09-13T13:46:45;2.97;;;2.78;;
22904;SDS011;11619;50.140;8.518;2022-09-13T13:59:50;4.82;;;3.67;;
22904;SDS011;11619;50.140;8.518;2022-09-13T14:02:20;4.57;;;4.07;;
22904;SDS011;11619;50.140;8.518;2022-09-13T14:10:52;4.15;;;3.72;;
22904;SDS011;11619;50.140;8.518;2022-09-13T14:16:18;5.38;;;3.75;;
22904;SDS011;11619;50.140;8.518;2022-09-13T14:19:21;4.68;;;3.80;;
22904;SDS011;11619;50.140;8.518;2022-09-13T14:24:42;4.10;;;3.80;;
22904;SDS011;11619;50.140;8.518;2022-09-13T14:27:21;5.57;;;3.80;;
22904;SDS011;11619;50.140;8.518;2022-09-13T14:29:55;3.80;;;3.50;;
22904;SDS011;11619;50.140;8.518;2022-09-13T14:32:23;3.97;;;3.55;;
22904;SDS011;11619;50.140;8.518;2022-09-13T14:34:59;4.30;;;3.90;;
22904;SDS011;11619;50.140;8.518;2022-09-13T14:37:31;4.82;;;3.75;;
22904;SDS011;11619;50.140;8.518;2022-09-13T14:40:00;7.18;;;4.30;;
22904;SDS011;11619;50.140;8.518;2022-09-13T14:42:42;5.97;;;4.13;;
22904;SDS011;11619;50.140;8.518;2022-09-13T14:45:13;5.25;;;4.75;;
22904;SDS011;11619;50.140;8.518;2022-09-13T14:47:54;4.95;;;4.55;;
22904;SDS011;11619;50.140;8.518;2022-09-13T14:50:45;8.45;;;5.47;;
22904;SDS011;11619;50.140;8.518;2022-09-13T14:53:16;7.30;;;5.60;;
22904;SDS011;11619;50.140;8.518;2022-09-13T14:55:48;5.63;;;5.07;;
22904;SDS011;11619;50.140;8.518;2022-09-13T14:58:18;6.85;;;5.70;;
22904;SDS011;11619;50.140;8.518;2022-09-13T15:00:53;6.88;;;5.40;;
22904;SDS011;11619;50.140;8.518;2022-09-13T15:03:22;7.03;;;5.93;;
22904;SDS011;11619;50.140;8.518;2022-09-13T15:05:52;6.45;;;5.78;;
22904;SDS011;11619;50.140;8.518;2022-09-13T15:08:34;7.72;;;5.30;;
22904;SDS011;11619;50.140;8.518;2022-09-13T15:11:06;5.35;;;4.85;;
22904;SDS011;11619;50.140;8.518;2022-09-13T15:13:40;7.25;;;5.60;;
22904;SDS011;11619;50.140;8.518;2022-09-13T15:19:15;8.32;;;6.43;;
22904;SDS011;11619;50.140;8.518;2022-09-13T15:21:45;6.13;;;5.50;;
22904;SDS011;11619;50.140;8.518;2022-09-13T15:24:21;5.80;;;5.30;;
22904;SDS011;11619;50.140;8.518;2022-09-13T15:27:01;8.27;;;6.30;;
22904;SDS011;11619;50.140;8.518;2022-09-13T15:29:29;7.50;;;6.57;;
22904;SDS011;11619;50.140;8.518;2022-09-13T15:32:00;9.25;;;6.50;;
22904;SDS011;11619;50.140;8.518;2022-09-13T15:34:27;7.32;;;6.10;;
22904;SDS011;11619;50.140;8.518;2022-09-13T15:39:26;7.55;;;6.85;;
22904;SDS011;11619;50.140;8.518;2022-09-13T15:41:53;8.57;;;6.65;;
22904;SDS011;11619;50.140;8.518;2022-09-13T15:44:21;10.38;;;6.45;;
22904;SDS011;11619;50.140;8.518;2022-09-13T15:46:49;10.38;;;6.03;;
22904;SDS011;11619;50.140;8.518;2022-09-13T15:49:18;12.77;;;7.40;;
22904;SDS011;11619;50.140;8.518;2022-09-13T15:51:47;9.38;;;7.07;;
22904;SDS011;11619;50.140;8.518;2022-09-13T15:54:18;7.30;;;6.60;;
22904;SDS011;11619;50.140;8.518;2022-09-13T15:56:47;14.98;;;7.28;;
22904;SDS011;11619;50.140;8.518;2022-09-13T15:59:17;6.72;;;6.13;;
22904;SDS011;11619;50.140;8.518;2022-09-13T16:01:46;5.78;;;5.28;;
22904;SDS011;11619;50.140;8.518;2022-09-13T16:04:13;6.13;;;5.63;;
22904;SDS011;11619;50.140;8.518;2022-09-13T16:06:39;7.72;;;6.07;;
22904;SDS011;11619;50.140;8.518;2022-09-13T16:09:20;9.32;;;7.00;;
22904;SDS011;11619;50.140;8.518;2022-09-13T16:11:49;10.00;;;7.47;;
22904;SDS011;11619;50.140;8.518;2022-09-13T16:16:52;7.35;;;6.65;;
22904;SDS011;11619;50.140;8.518;2022-09-13T16:19:21;7.82;;;6.30;;
22904;SDS011;11619;50.140;8.518;2022-09-13T16:21:48;7.63;;;6.50;;
22904;SDS011;11619;50.140;8.518;2022-09-13T16:24:15;8.20;;;7.40;;
22904;SDS011;11619;50.140;8.518;2022-09-13T16:26:41;6.20;;;5.60;;
22904;SDS011;11619;50.140;8.518;2022-09-13T16:29:11;6.80;;;5.53;;
22904;SDS011;11619;50.140;8.518;2022-09-13T16:31:37;6.18;;;4.82;;
22904;SDS011;11619;50.140;8.518;2022-09-13T16:34:04;5.68;;;5.13;;
22904;SDS011;11619;50.140;8.518;2022-09-13T16:36:31;6.07;;;5.55;;
22904;SDS011;11619;50.140;8.518;2022-09-13T16:38:59;6.15;;;5.55;;
22904;SDS011;11619;50.140;8.518;2022-09-13T16:41:25;7.45;;;6.75;;
22904;SDS011;11619;50.140;8.518;2022-09-13T16:43:53;10.20;;;8.00;;
22904;SDS011;11619;50.140;8.518;2022-09-13T16:46:19;8.57;;;6.90;;
22904;SDS011;11619;50.140;8.518;2022-09-13T16:48:52;8.45;;;7.65;;
22904;SDS011;11619;50.140;8.518;2022-09-13T16:51:20;8.75;;;7.82;;
22904;SDS011;11619;50.140;8.518;2022-09-13T16:53:47;11.23;;;8.00;;
22904;SDS011;11619;50.140;8.518;2022-09-13T16:56:15;8.80;;;7.20;;
22904;SDS011;11619;50.140;8.518;2022-09-13T16:58:43;10.48;;;8.13;;
22904;SDS011;11619;50.140;8.518;2022-09-13T17:01:12;11.88;;;9.63;;
22904;SDS011;11619;50.140;8.518;2022-09-13T17:03:39;8.85;;;8.05;;
22904;SDS011;11619;50.140;8.518;2022-09-13T17:06:06;8.63;;;7.72;;
22904;SDS011;11619;50.140;8.518;2022-09-13T17:08:35;8.27;;;7.38;;
22904;SDS011;11619;50.140;8.518;2022-09-13T17:11:09;8.50;;;7.60;;
22904;SDS011;11619;50.140;8.518;2022-09-13T17:13:38;9.45;;;7.72;;
22904;SDS011;11619;50.140;8.518;2022-09-13T17:16:05;8.43;;;7.35;;
22904;SDS011;11619;50.140;8.518;2022-09-13T17:18:32;8.45;;;6.70;;
22904;SDS011;11619;50.140;8.518;2022-09-13T17:20:59;7.20;;;6.60;;
22904;SDS011;11619;50.140;8.518;2022-09-13T17:23:25;6.43;;;5.82;;
22904;SDS011;11619;50.140;8.518;2022-09-13T17:25:53;7.05;;;6.22;;
22904;SDS011;11619;50.140;8.518;2022-09-13T17:28:19;6.60;;;5.97;;
22904;SDS011;11619;50.140;8.518;2022-09-13T17:30:46;7.63;;;6.38;;
22904;SDS011;11619;50.140;8.518;2022-09-13T17:33:12;7.68;;;6.55;;
22904;SDS011;11619;50.140;8.518;2022-09-13T17:35:39;6.78;;;6.10;;
22904;SDS011;11619;50.140;8.518;2022-09-13T17:38:05;7.20;;;6.53;;
22904;SDS011;11619;50.140;8.518;2022-09-13T17:40:31;7.28;;;6.50;;
22904;SDS011;11619;50.140;8.518;2022-09-13T17:42:58;6.05;;;5.55;;
22904;SDS011;11619;50.140;8.518;2022-09-13T17:45:24;7.05;;;5.97;;
22904;SDS011;11619;50.140;8.518;2022-09-13T17:47:51;6.05;;;5.50;;